Time;durP1;ratioP1;P1;durP2;ratioP2;P2;SDS_P1;SDS_P2;PMS_P1;PMS_P2;Temp;Humidity;BMP_temperature;BMP_pressure;BME280_temperature;BME280_humidity;BME280_pressure;Samples;Min_cycle;Max_cycle;Signal;HPM_P1;HPM_P2
2022/07/29 00:00:00;;;;;;;;;;;20.10;63.70;;;;;;1997978;28;19906;-68
2022/07/29 00:00:58;;;;;;;;;;;20.10;63.70;;;;;;1997943;28;19921;-67
2022/07/29 00:01:57;;;;;;;;;;;20.10;63.70;;;;;;1998048;28;19992;-68
2022/07/29 00:02:56;;;;;;;;;;;20.10;63.70;;;;;;1998043;28;20000;-67
2022/07/29 00:03:54;;;;;;;;;;;20.10;63.70;;;;;;1989472;28;19910;-69
2022/07/29 00:04:52;;;;;;;;;;;20.10;63.70;;;;;;1989719;28;19906;-68
2022/07/29 00:05:55;;;;;;;;;;;20.10;63.80;;;;;;1997387;28;20384;-68
2022/07/29 00:06:53;;;;;;;;;;;20.10;63.80;;;;;;1997852;28;19913;-68
2022/07/29 00:07:52;;;;;;;;;;;20.10;63.80;;;;;;1989411;28;19989;-67
2022/07/29 00:08:50;;;;;;;;;;;20.10;63.80;;;;;;1989529;28;19906;-68
2022/07/29 00:09:48;;;;;;;;;;;20.10;63.80;;;;;;1997290;28;19912;-69
2022/07/29 00:10:47;;;;;;;;;;;20.00;63.70;;;;;;1997748;28;19906;-68
2022/07/29 00:11:46;;;;;;;;;;;20.10;63.90;;;;;;1997889;28;19982;-68
2022/07/29 00:12:44;;;;;;;;;;;20.10;63.80;;;;;;1997857;28;19989;-68
2022/07/29 00:13:43;;;;;;;;;;;20.10;63.80;;;;;;1997697;28;19968;-68
2022/07/29 00:14:41;;;;;;;;;;;20.10;63.80;;;;;;1997840;28;20341;-69
2022/07/29 00:15:40;;;;;;;;;;;20.10;63.80;;;;;;1997823;28;19905;-69
2022/07/29 00:16:38;;;;;;;;;;;20.00;63.70;;;;;;1997766;28;19941;-68
2022/07/29 00:17:37;;;;;;;;;;;20.10;63.90;;;;;;1997903;28;20368;-68
2022/07/29 00:18:35;;;;;;;;;;;20.10;63.80;;;;;;1997815;28;20407;-68
2022/07/29 00:19:34;;;;;;;;;;;20.00;63.70;;;;;;1997507;28;19953;-68
2022/07/29 00:20:32;;;;;;;;;;;20.10;63.80;;;;;;1989379;28;19914;-68
2022/07/29 00:21:31;;;;;;;;;;;20.00;63.70;;;;;;1989672;28;19906;-69
2022/07/29 00:22:29;;;;;;;;;;;20.00;63.80;;;;;;1997240;28;19912;-68
2022/07/29 00:23:28;;;;;;;;;;;20.00;63.70;;;;;;1998001;28;19910;-68
2022/07/29 00:24:26;;;;;;;;;;;20.00;63.70;;;;;;1989365;28;20407;-68
2022/07/29 00:25:25;;;;;;;;;;;20.00;63.70;;;;;;1989467;28;19913;-68
2022/07/29 00:26:23;;;;;;;;;;;20.00;63.70;;;;;;1997335;28;20351;-68
2022/07/29 00:27:22;;;;;;;;;;;20.00;63.80;;;;;;1997775;28;20003;-68
2022/07/29 00:28:20;;;;;;;;;;;20.00;63.80;;;;;;1997919;28;19910;-68
2022/07/29 00:29:18;;;;;;;;;;;20.00;63.80;;;;;;1997758;28;20012;-68
2022/07/29 00:30:17;;;;;;;;;;;20.00;63.70;;;;;;1997804;28;19906;-69
2022/07/29 00:31:15;;;;;;;;;;;20.00;63.70;;;;;;1989314;28;19913;-68
2022/07/29 00:32:14;;;;;;;;;;;20.00;63.80;;;;;;1989617;28;19914;-67
2022/07/29 00:33:12;;;;;;;;;;;20.00;63.80;;;;;;1997328;28;20249;-68
2022/07/29 00:35:43;;;;;;;;;;;20.10;63.80;;;;;;1997901;28;19905;-67
2022/07/29 00:36:41;;;;;;;;;;;20.00;63.90;;;;;;1989272;28;20354;-67
2022/07/29 00:37:40;;;;;;;;;;;20.00;63.80;;;;;;1989384;28;20308;-67
2022/07/29 00:38:38;;;;;;;;;;;20.00;63.80;;;;;;1997079;28;19906;-67
2022/07/29 00:39:37;;;;;;;;;;;20.00;63.80;;;;;;1997644;28;19912;-68
2022/07/29 00:40:35;;;;;;;;;;;20.00;63.80;;;;;;1997547;28;19936;-67
2022/07/29 00:41:34;;;;;;;;;;;20.00;63.80;;;;;;1997636;28;19910;-67
2022/07/29 00:42:42;;;;;;;;;;;20.00;63.90;;;;;;1997634;28;19909;-67
2022/07/29 00:43:41;;;;;;;;;;;20.00;63.90;;;;;;1997670;28;20361;-66
2022/07/29 00:44:40;;;;;;;;;;;20.00;63.80;;;;;;1997705;28;20071;-66
2022/07/29 00:45:41;;;;;;;;;;;20.00;63.80;;;;;;1997608;28;19905;-67
2022/07/29 00:46:39;;;;;;;;;;;20.00;63.90;;;;;;1997692;28;19906;-67
2022/07/29 00:47:38;;;;;;;;;;;20.00;63.80;;;;;;1997600;28;19956;-68
2022/07/29 00:48:37;;;;;;;;;;;20.00;63.80;;;;;;1997690;28;20323;-67
2022/07/29 00:49:36;;;;;;;;;;;20.00;63.80;;;;;;1997710;28;20000;-68
2022/07/29 00:50:35;;;;;;;;;;;20.00;63.80;;;;;;1997543;28;19906;-67
2022/07/29 00:51:37;;;;;;;;;;;20.00;63.80;;;;;;1997550;28;19906;-67
2022/07/29 00:52:36;;;;;;;;;;;20.00;63.90;;;;;;1997874;28;19909;-68
2022/07/29 00:53:35;;;;;;;;;;;20.00;63.90;;;;;;1997607;28;19910;-68
2022/07/29 00:54:34;;;;;;;;;;;20.00;64.60;;;;;;1997768;28;20000;-67
2022/07/29 00:55:32;;;;;;;;;;;20.00;63.90;;;;;;1997673;28;19932;-68
2022/07/29 00:56:32;;;;;;;;;;;20.00;63.90;;;;;;1997612;28;19906;-68
2022/07/29 00:57:31;;;;;;;;;;;20.00;63.90;;;;;;1997588;28;19905;-68
2022/07/29 00:58:29;;;;;;;;;;;20.00;63.90;;;;;;1997632;28;19909;-68
2022/07/29 00:59:28;;;;;;;;;;;20.00;63.90;;;;;;1997557;28;20274;-68
2022/07/29 01:00:28;;;;;;;;;;;20.00;64.00;;;;;;1997443;28;20277;-67
2022/07/29 01:01:26;;;;;;;;;;;20.00;64.00;;;;;;1997595;28;19913;-67
2022/07/29 01:02:25;;;;;;;;;;;20.00;64.00;;;;;;1997465;28;19906;-67
2022/07/29 01:03:23;;;;;;;;;;;20.00;64.00;;;;;;1997500;28;19914;-67
2022/07/29 01:04:22;;;;;;;;;;;20.00;63.90;;;;;;1989077;28;20381;-68
2022/07/29 01:05:22;;;;;;;;;;;20.00;63.90;;;;;;1989148;28;19999;-68
2022/07/29 01:06:21;;;;;;;;;;;20.00;64.00;;;;;;1997213;28;19929;-68
2022/07/29 01:07:20;;;;;;;;;;;20.00;64.00;;;;;;1997530;28;19906;-68
2022/07/29 01:08:18;;;;;;;;;;;20.00;64.00;;;;;;1997472;28;19910;-68
2022/07/29 01:09:18;;;;;;;;;;;20.00;63.90;;;;;;1997447;28;19906;-67
2022/07/29 01:10:17;;;;;;;;;;;20.00;63.90;;;;;;1997372;28;19906;-67
2022/07/29 01:11:16;;;;;;;;;;;20.00;64.00;;;;;;1997573;28;19959;-68
2022/07/29 01:12:17;;;;;;;;;;;20.00;64.00;;;;;;1997581;28;19921;-69
2022/07/29 01:13:17;;;;;;;;;;;20.00;64.00;;;;;;1997166;28;19906;-67
2022/07/29 01:14:16;;;;;;;;;;;20.00;64.00;;;;;;1997635;28;19905;-67
2022/07/29 01:15:15;;;;;;;;;;;20.00;64.00;;;;;;1997534;28;20264;-69
2022/07/29 01:16:16;;;;;;;;;;;20.00;64.00;;;;;;1997435;28;19913;-68
2022/07/29 01:17:21;;;;;;;;;;;20.00;64.60;;;;;;1997503;28;19963;-67
2022/07/29 01:18:22;;;;;;;;;;;20.00;64.10;;;;;;1997417;28;19909;-68
2022/07/29 01:19:30;;;;;;;;;;;20.00;63.90;;;;;;1997397;28;19906;-68
2022/07/29 01:20:40;;;;;;;;;;;20.00;64.00;;;;;;1997504;28;19905;-68
2022/07/29 01:21:44;;;;;;;;;;;20.00;64.00;;;;;;1997467;28;19909;-68
2022/07/29 01:22:49;;;;;;;;;;;20.00;64.00;;;;;;1997491;28;19981;-68
2022/07/29 01:24:01;;;;;;;;;;;20.00;64.00;;;;;;1997334;28;19929;-68
2022/07/29 01:25:11;;;;;;;;;;;20.00;64.00;;;;;;1997377;28;19912;-67
2022/07/29 01:26:13;;;;;;;;;;;20.00;64.00;;;;;;1997375;28;19906;-69
2022/07/29 01:27:11;;;;;;;;;;;20.00;64.00;;;;;;1997382;28;20373;-69
2022/07/29 01:28:28;;;;;;;;;;;20.00;64.10;;;;;;1997242;28;19905;-68
2022/07/29 01:29:32;;;;;;;;;;;20.00;64.00;;;;;;1988939;28;20408;-68
2022/07/29 01:30:32;;;;;;;;;;;20.00;64.10;;;;;;1989003;28;19996;-68
2022/07/29 01:31:49;;;;;;;;;;;20.00;64.00;;;;;;1996797;28;20348;-68
2022/07/29 01:32:49;;;;;;;;;;;20.00;64.00;;;;;;1997269;28;19906;-68
2022/07/29 01:33:53;;;;;;;;;;;20.00;64.00;;;;;;1997362;28;19913;-68
2022/07/29 01:34:57;;;;;;;;;;;20.00;64.00;;;;;;1997380;28;19913;-68
2022/07/29 01:35:56;;;;;;;;;;;20.00;64.00;;;;;;1997473;28;19906;-68
2022/07/29 01:36:59;;;;;;;;;;;20.00;64.10;;;;;;1997446;28;19949;-67
2022/07/29 01:38:02;;;;;;;;;;;20.00;64.10;;;;;;1997248;28;19906;-67
2022/07/29 01:39:22;;;;;;;;;;;20.00;64.10;;;;;;1997331;28;20400;-67
2022/07/29 01:40:24;;;;;;;;;;;20.00;64.00;;;;;;1997339;28;19905;-68
2022/07/29 01:41:24;;;;;;;;;;;20.00;64.00;;;;;;1997306;28;19906;-67
2022/07/29 01:42:31;;;;;;;;;;;20.00;64.20;;;;;;1997215;28;20245;-68
2022/07/29 01:43:50;;;;;;;;;;;20.00;64.10;;;;;;1997213;28;20007;-68
2022/07/29 01:45:08;;;;;;;;;;;20.00;64.10;;;;;;1996840;28;19989;-68
2022/07/29 01:46:09;;;;;;;;;;;20.00;64.10;;;;;;1997265;28;20385;-68
2022/07/29 01:47:11;;;;;;;;;;;20.00;64.10;;;;;;1997294;28;19906;-67
2022/07/29 01:48:12;;;;;;;;;;;20.00;64.10;;;;;;1988661;28;19905;-68
2022/07/29 01:49:13;;;;;;;;;;;20.00;64.20;;;;;;1988894;28;20400;-68
2022/07/29 01:50:15;;;;;;;;;;;20.00;64.00;;;;;;1997086;28;19960;-68
2022/07/29 01:51:16;;;;;;;;;;;20.00;64.10;;;;;;1988739;28;20328;-68
2022/07/29 01:52:50;;;;;;;;;;;20.00;64.10;;;;;;1988818;28;19914;-68
2022/07/29 01:53:48;;;;;;;;;;;20.00;64.10;;;;;;1965632;29;19907;-68
2022/07/29 01:54:51;;;;;;;;;;;20.00;64.10;;;;;;1965660;29;19969;-68
2022/07/29 01:55:50;;;;;;;;;;;20.00;64.00;;;;;;1967082;28;19907;-68
2022/07/29 01:56:50;;;;;;;;;;;20.00;64.10;;;;;;1997248;28;19906;-68
2022/07/29 01:57:49;;;;;;;;;;;20.00;64.10;;;;;;1997138;28;19906;-68
2022/07/29 01:58:49;;;;;;;;;;;20.00;64.10;;;;;;1997156;28;19905;-67
2022/07/29 01:59:48;;;;;;;;;;;20.00;64.10;;;;;;1997095;28;19914;-67
2022/07/29 02:00:47;;;;;;;;;;;20.00;64.10;;;;;;1997052;28;19905;-67
2022/07/29 02:01:48;;;;;;;;;;;19.90;64.00;;;;;;1997108;28;19992;-68
2022/07/29 02:02:47;;;;;;;;;;;20.00;64.10;;;;;;1997135;28;19913;-68
2022/07/29 02:03:46;;;;;;;;;;;20.00;64.10;;;;;;1997033;28;19905;-67
2022/07/29 02:04:48;;;;;;;;;;;20.00;64.10;;;;;;1997083;28;20008;-68
2022/07/29 02:05:47;;;;;;;;;;;20.00;64.10;;;;;;1997164;28;20379;-68
2022/07/29 02:06:47;;;;;;;;;;;19.90;64.00;;;;;;1997199;28;19905;-68
2022/07/29 02:07:47;;;;;;;;;;;19.90;64.00;;;;;;1997126;28;19955;-69
2022/07/29 02:08:46;;;;;;;;;;;20.00;64.10;;;;;;1996963;28;19916;-68
2022/07/29 02:09:45;;;;;;;;;;;19.90;64.00;;;;;;1997125;28;19905;-69
2022/07/29 02:10:44;;;;;;;;;;;19.90;64.00;;;;;;1997109;28;19905;-68
2022/07/29 02:11:47;;;;;;;;;;;20.00;64.10;;;;;;1997028;28;19989;-68
2022/07/29 02:12:46;;;;;;;;;;;20.00;64.00;;;;;;1997052;28;19913;-68
2022/07/29 02:13:45;;;;;;;;;;;19.90;64.00;;;;;;1996967;28;20012;-68
2022/07/29 02:14:45;;;;;;;;;;;19.90;63.90;;;;;;1997087;28;19928;-68
2022/07/29 02:15:44;;;;;;;;;;;19.90;63.90;;;;;;1996991;28;19906;-68
2022/07/29 02:16:43;;;;;;;;;;;20.00;64.10;;;;;;1997137;28;19910;-68
2022/07/29 02:17:44;;;;;;;;;;;19.90;63.90;;;;;;1997007;28;19989;-68
2022/07/29 02:18:45;;;;;;;;;;;19.90;64.00;;;;;;1997159;28;19906;-68
2022/07/29 02:19:44;;;;;;;;;;;20.00;64.80;;;;;;1997021;28;19972;-68
2022/07/29 02:20:48;;;;;;;;;;;20.00;64.10;;;;;;1997010;28;19909;-69
2022/07/29 02:21:46;;;;;;;;;;;19.90;64.00;;;;;;1996982;28;19957;-67
2022/07/29 02:22:46;;;;;;;;;;;20.00;64.20;;;;;;1996969;28;19996;-67
2022/07/29 02:23:45;;;;;;;;;;;20.00;64.10;;;;;;1997028;28;19914;-68
2022/07/29 02:24:44;;;;;;;;;;;20.00;64.10;;;;;;1997045;28;19906;-67
2022/07/29 02:25:43;;;;;;;;;;;19.90;64.00;;;;;;1997058;28;20410;-67
2022/07/29 02:26:42;;;;;;;;;;;20.00;64.00;;;;;;1997101;28;19969;-67
2022/07/29 02:27:42;;;;;;;;;;;19.90;63.90;;;;;;1997029;28;19913;-67
2022/07/29 02:28:40;;;;;;;;;;;20.00;64.10;;;;;;1996945;28;19960;-67
2022/07/29 02:29:39;;;;;;;;;;;20.00;64.00;;;;;;1988612;28;19910;-67
2022/07/29 02:30:40;;;;;;;;;;;20.00;64.10;;;;;;1980813;29;19913;-68
2022/07/29 02:31:39;;;;;;;;;;;20.00;64.10;;;;;;1988421;28;19913;-68
2022/07/29 02:32:39;;;;;;;;;;;20.00;64.00;;;;;;1996925;28;19922;-67
2022/07/29 02:33:40;;;;;;;;;;;19.90;63.90;;;;;;1996955;28;19905;-67
2022/07/29 02:34:39;;;;;;;;;;;20.00;64.10;;;;;;1997017;28;19913;-68
2022/07/29 02:35:40;;;;;;;;;;;20.00;64.00;;;;;;1997014;28;19913;-67
2022/07/29 02:36:39;;;;;;;;;;;19.90;63.80;;;;;;1996985;28;19906;-67
2022/07/29 02:37:38;;;;;;;;;;;20.00;64.00;;;;;;1997025;28;19906;-67
2022/07/29 02:38:53;;;;;;;;;;;20.00;64.00;;;;;;1997051;28;19906;-67
2022/07/29 02:39:53;;;;;;;;;;;19.90;64.00;;;;;;1996942;28;20042;-67
2022/07/29 02:40:53;;;;;;;;;;;20.00;64.80;;;;;;1996853;28;19906;-67
2022/07/29 02:41:54;;;;;;;;;;;19.90;63.90;;;;;;1996964;28;20352;-67
2022/07/29 02:42:53;;;;;;;;;;;20.00;64.00;;;;;;1998108;28;19906;-67
2022/07/29 02:43:54;;;;;;;;;;;19.90;64.00;;;;;;1998543;28;20320;-67
2022/07/29 02:44:53;;;;;;;;;;;19.90;63.90;;;;;;1998499;28;19912;-67
2022/07/29 02:45:53;;;;;;;;;;;20.00;64.00;;;;;;1998715;28;19905;-67
2022/07/29 02:46:58;;;;;;;;;;;20.00;64.00;;;;;;1998596;28;20320;-67
2022/07/29 02:47:57;;;;;;;;;;;20.00;64.00;;;;;;1998501;28;19906;-67
2022/07/29 02:48:59;;;;;;;;;;;19.90;63.90;;;;;;1998475;28;19949;-67
2022/07/29 02:50:02;;;;;;;;;;;20.00;64.10;;;;;;1998607;28;19945;-67
2022/07/29 02:51:04;;;;;;;;;;;19.90;64.00;;;;;;1998510;28;19941;-68
2022/07/29 02:52:06;;;;;;;;;;;19.90;63.90;;;;;;1998350;28;19910;-67
2022/07/29 02:53:17;;;;;;;;;;;20.00;64.20;;;;;;1989991;28;19917;-68
2022/07/29 02:54:22;;;;;;;;;;;20.00;64.10;;;;;;1991390;28;19948;-67
2022/07/29 02:55:33;;;;;;;;;;;19.90;64.00;;;;;;1998459;28;20354;-67
2022/07/29 02:56:34;;;;;;;;;;;19.90;63.90;;;;;;1998473;28;19906;-68
2022/07/29 02:57:39;;;;;;;;;;;19.90;64.00;;;;;;1998400;28;19909;-69
2022/07/29 02:58:38;;;;;;;;;;;19.90;63.90;;;;;;1998551;28;19956;-67
2022/07/29 02:59:41;;;;;;;;;;;19.90;63.90;;;;;;1998426;28;20004;-67
2022/07/29 03:00:40;;;;;;;;;;;19.90;64.00;;;;;;1998571;28;20278;-68
2022/07/29 03:01:41;;;;;;;;;;;19.90;63.90;;;;;;1998367;28;19972;-68
2022/07/29 03:02:44;;;;;;;;;;;19.90;63.90;;;;;;1998394;28;19905;-68
2022/07/29 03:03:44;;;;;;;;;;;19.90;63.90;;;;;;1998382;28;20320;-68
2022/07/29 03:04:43;;;;;;;;;;;19.90;63.90;;;;;;1998400;28;19993;-68
2022/07/29 03:05:42;;;;;;;;;;;19.90;63.90;;;;;;1998464;28;19906;-68
2022/07/29 03:06:40;;;;;;;;;;;19.90;63.90;;;;;;1998466;28;19906;-68
2022/07/29 03:07:40;;;;;;;;;;;20.00;64.10;;;;;;1998305;28;19913;-68
2022/07/29 03:08:39;;;;;;;;;;;19.90;63.90;;;;;;1998265;28;20053;-68
2022/07/29 03:09:38;;;;;;;;;;;19.90;63.90;;;;;;1998394;28;20321;-68
2022/07/29 03:10:38;;;;;;;;;;;20.00;64.10;;;;;;1998339;28;19928;-68
2022/07/29 03:11:38;;;;;;;;;;;19.90;63.90;;;;;;1998317;28;19912;-68
2022/07/29 03:12:36;;;;;;;;;;;19.90;64.00;;;;;;1998309;28;20020;-69
2022/07/29 03:13:35;;;;;;;;;;;19.90;63.90;;;;;;1998101;28;19920;-68
2022/07/29 03:14:34;;;;;;;;;;;19.90;64.00;;;;;;1998326;28;19917;-68
2022/07/29 03:15:33;;;;;;;;;;;19.90;64.00;;;;;;1998334;28;19968;-68
2022/07/29 03:16:33;;;;;;;;;;;19.90;63.90;;;;;;1998289;28;19968;-67
2022/07/29 03:17:31;;;;;;;;;;;19.90;64.10;;;;;;1998397;28;19906;-68
2022/07/29 03:18:31;;;;;;;;;;;19.90;63.90;;;;;;1989945;28;19953;-68
2022/07/29 03:19:29;;;;;;;;;;;19.90;63.90;;;;;;1989938;28;20404;-68
2022/07/29 03:20:28;;;;;;;;;;;19.90;63.90;;;;;;1997797;28;20015;-68
2022/07/29 03:21:26;;;;;;;;;;;19.90;63.90;;;;;;1998293;28;19905;-69
2022/07/29 03:22:25;;;;;;;;;;;19.90;63.90;;;;;;1998281;28;20361;-67
2022/07/29 03:23:25;;;;;;;;;;;19.90;63.90;;;;;;1998204;28;20236;-67
2022/07/29 03:24:34;;;;;;;;;;;19.90;63.90;;;;;;1998212;28;20371;-67
2022/07/29 03:25:32;;;;;;;;;;;19.90;64.00;;;;;;1989811;28;19956;-66
2022/07/29 03:26:31;;;;;;;;;;;19.90;63.90;;;;;;1989847;28;19906;-69
2022/07/29 03:27:29;;;;;;;;;;;19.90;64.00;;;;;;1997789;28;19909;-68
2022/07/29 03:28:29;;;;;;;;;;;19.90;64.00;;;;;;1998315;28;19909;-67
2022/07/29 03:29:28;;;;;;;;;;;19.90;64.00;;;;;;1998231;28;19906;-68
2022/07/29 03:30:26;;;;;;;;;;;20.00;64.10;;;;;;1998107;28;20384;-68
2022/07/29 03:31:25;;;;;;;;;;;19.90;64.00;;;;;;1998227;28;19972;-68
2022/07/29 03:32:24;;;;;;;;;;;19.90;63.90;;;;;;1998181;28;20357;-68
2022/07/29 03:33:22;;;;;;;;;;;19.90;64.00;;;;;;1998145;28;19952;-68
2022/07/29 03:34:21;;;;;;;;;;;19.90;64.00;;;;;;1998153;28;19912;-67
2022/07/29 03:35:19;;;;;;;;;;;19.90;64.00;;;;;;1998253;28;19996;-68
2022/07/29 03:36:18;;;;;;;;;;;19.90;64.00;;;;;;1998267;28;19941;-68
2022/07/29 03:37:16;;;;;;;;;;;19.90;64.00;;;;;;1998231;28;19910;-68
2022/07/29 03:38:15;;;;;;;;;;;19.90;64.00;;;;;;1998217;28;19913;-68
2022/07/29 03:39:16;;;;;;;;;;;19.90;64.00;;;;;;1998186;28;19906;-69
2022/07/29 03:40:21;;;;;;;;;;;19.90;64.00;;;;;;1998180;28;19977;-68
2022/07/29 03:41:21;;;;;;;;;;;19.90;64.00;;;;;;1998213;28;19906;-68
2022/07/29 03:42:23;;;;;;;;;;;19.90;63.90;;;;;;1998145;28;19912;-68
2022/07/29 03:43:23;;;;;;;;;;;19.90;63.90;;;;;;1989842;28;19906;-68
2022/07/29 03:44:23;;;;;;;;;;;19.90;64.00;;;;;;1989713;28;19912;-69
2022/07/29 03:45:22;;;;;;;;;;;19.90;63.90;;;;;;1998271;28;19909;-67
2022/07/29 03:46:22;;;;;;;;;;;19.90;63.90;;;;;;1998202;28;19913;-67
2022/07/29 03:47:23;;;;;;;;;;;19.90;64.00;;;;;;1998192;28;19910;-67
2022/07/29 03:48:22;;;;;;;;;;;19.90;63.90;;;;;;1997964;28;19936;-67
2022/07/29 03:49:21;;;;;;;;;;;19.90;63.90;;;;;;1998158;28;19906;-69
2022/07/29 03:50:20;;;;;;;;;;;19.90;63.90;;;;;;1998053;28;19905;-67
2022/07/29 03:51:19;;;;;;;;;;;19.90;63.90;;;;;;1998134;28;20403;-68
2022/07/29 03:52:17;;;;;;;;;;;19.90;64.00;;;;;;1998051;28;19972;-67
2022/07/29 03:53:16;;;;;;;;;;;19.90;64.00;;;;;;1998198;28;19928;-69
2022/07/29 03:54:14;;;;;;;;;;;19.90;63.90;;;;;;1997356;28;20276;-69
2022/07/29 03:55:13;;;;;;;;;;;19.90;64.00;;;;;;1997992;28;20384;-69
2022/07/29 03:56:15;;;;;;;;;;;19.90;63.90;;;;;;1998034;28;19905;-66
2022/07/29 03:57:14;;;;;;;;;;;19.90;64.00;;;;;;1997989;28;19932;-67
2022/07/29 03:58:14;;;;;;;;;;;19.90;64.00;;;;;;1998102;28;20395;-67
2022/07/29 03:59:13;;;;;;;;;;;19.90;63.90;;;;;;1997994;28;19905;-69
2022/07/29 04:00:12;;;;;;;;;;;19.90;63.90;;;;;;1997856;28;19912;-67
2022/07/29 04:01:11;;;;;;;;;;;19.90;64.00;;;;;;1997955;28;20349;-67
2022/07/29 04:02:11;;;;;;;;;;;19.90;63.90;;;;;;1998022;28;20357;-67
2022/07/29 04:03:10;;;;;;;;;;;19.90;64.10;;;;;;1997996;28;19925;-67
2022/07/29 04:04:08;;;;;;;;;;;19.90;64.00;;;;;;1997920;28;19921;-67
2022/07/29 04:05:11;;;;;;;;;;;19.90;63.90;;;;;;1997886;28;19929;-67
2022/07/29 04:06:10;;;;;;;;;;;19.90;64.00;;;;;;1997933;28;20349;-67
2022/07/29 04:07:11;;;;;;;;;;;19.90;64.00;;;;;;1998004;28;19976;-67
2022/07/29 04:08:09;;;;;;;;;;;19.90;64.00;;;;;;1997878;28;19909;-67
2022/07/29 04:09:08;;;;;;;;;;;19.90;64.00;;;;;;1997877;28;19949;-67
2022/07/29 04:10:08;;;;;;;;;;;19.90;64.00;;;;;;1997922;28;19960;-67
2022/07/29 04:11:06;;;;;;;;;;;19.90;64.10;;;;;;1997878;28;20514;-67
2022/07/29 04:12:05;;;;;;;;;;;19.90;64.00;;;;;;1997832;28;20017;-67
2022/07/29 04:13:03;;;;;;;;;;;19.90;64.00;;;;;;1989392;28;19906;-67
2022/07/29 04:14:02;;;;;;;;;;;19.90;64.60;;;;;;1989335;28;19918;-67
2022/07/29 04:15:01;;;;;;;;;;;19.90;64.00;;;;;;1997360;28;20246;-68
2022/07/29 04:16:00;;;;;;;;;;;19.90;64.00;;;;;;1997766;28;19905;-67
2022/07/29 04:16:58;;;;;;;;;;;19.90;64.00;;;;;;1997813;28;19906;-68
2022/07/29 04:17:57;;;;;;;;;;;19.90;64.00;;;;;;1997782;28;19910;-67
2022/07/29 04:18:56;;;;;;;;;;;19.90;64.00;;;;;;1997785;28;19905;-68
2022/07/29 04:19:54;;;;;;;;;;;19.90;64.00;;;;;;1989338;28;19917;-68
2022/07/29 04:20:53;;;;;;;;;;;19.90;63.90;;;;;;1989375;28;19913;-68
2022/07/29 04:21:52;;;;;;;;;;;19.90;64.20;;;;;;1997280;28;19912;-68
2022/07/29 04:22:50;;;;;;;;;;;19.90;64.00;;;;;;1997888;28;19905;-69
2022/07/29 04:23:52;;;;;;;;;;;19.90;64.00;;;;;;1997793;28;19930;-69
2022/07/29 04:24:50;;;;;;;;;;;19.90;64.00;;;;;;1997976;28;19928;-68
2022/07/29 04:25:49;;;;;;;;;;;19.90;64.00;;;;;;1998024;28;19906;-69
2022/07/29 04:26:47;;;;;;;;;;;19.90;63.90;;;;;;1997801;28;19913;-69
2022/07/29 04:28:01;;;;;;;;;;;19.90;64.00;;;;;;1997686;28;20008;-68
2022/07/29 04:29:00;;;;;;;;;;;19.90;64.00;;;;;;1997847;28;20340;-68
2022/07/29 04:29:58;;;;;;;;;;;19.90;64.00;;;;;;1997745;28;19906;-68
2022/07/29 04:30:56;;;;;;;;;;;19.90;63.90;;;;;;1997638;28;20348;-68
2022/07/29 04:31:55;;;;;;;;;;;19.90;64.00;;;;;;1997703;28;19947;-69
2022/07/29 04:32:53;;;;;;;;;;;19.90;64.00;;;;;;1997827;28;19960;-68
2022/07/29 04:33:52;;;;;;;;;;;19.90;63.90;;;;;;1997721;28;19952;-68
2022/07/29 04:34:50;;;;;;;;;;;19.90;63.90;;;;;;1997783;28;19906;-68
2022/07/29 04:35:49;;;;;;;;;;;19.90;64.00;;;;;;1997685;28;20316;-69
2022/07/29 04:36:47;;;;;;;;;;;19.90;64.00;;;;;;1997626;28;19906;-68
2022/07/29 04:37:46;;;;;;;;;;;19.90;64.00;;;;;;1997660;28;20001;-68
2022/07/29 04:38:44;;;;;;;;;;;19.90;64.00;;;;;;1997675;28;20369;-68
2022/07/29 04:39:43;;;;;;;;;;;19.90;63.90;;;;;;1997689;28;19906;-68
2022/07/29 04:40:41;;;;;;;;;;;19.90;64.00;;;;;;1997616;28;19933;-69
2022/07/29 04:41:40;;;;;;;;;;;19.90;64.00;;;;;;1997943;28;19906;-69
2022/07/29 04:42:38;;;;;;;;;;;19.90;64.00;;;;;;1997861;28;20349;-68
2022/07/29 04:43:37;;;;;;;;;;;19.90;64.00;;;;;;1997954;28;19912;-68
2022/07/29 04:44:35;;;;;;;;;;;19.90;63.90;;;;;;1997845;28;19928;-68
2022/07/29 04:45:34;;;;;;;;;;;19.90;64.00;;;;;;1997651;28;20369;-68
2022/07/29 04:46:32;;;;;;;;;;;19.90;64.00;;;;;;1997627;28;19920;-69
2022/07/29 04:47:31;;;;;;;;;;;19.90;64.00;;;;;;1997551;28;19906;-68
2022/07/29 04:48:30;;;;;;;;;;;19.90;64.00;;;;;;1989263;28;19945;-68
2022/07/29 04:49:28;;;;;;;;;;;19.90;63.90;;;;;;1989418;28;19906;-67
2022/07/29 04:50:27;;;;;;;;;;;19.90;64.00;;;;;;1996983;28;19980;-67
2022/07/29 04:51:25;;;;;;;;;;;19.90;64.60;;;;;;1997552;28;19906;-67
2022/07/29 04:52:24;;;;;;;;;;;19.90;64.00;;;;;;1997603;28;20008;-68
2022/07/29 04:53:22;;;;;;;;;;;19.90;64.00;;;;;;1997541;28;19905;-67
2022/07/29 04:54:21;;;;;;;;;;;19.90;64.00;;;;;;1997586;28;19909;-69
2022/07/29 04:55:19;;;;;;;;;;;19.90;64.70;;;;;;1997585;28;20000;-67
2022/07/29 04:56:18;;;;;;;;;;;19.90;64.00;;;;;;1997559;28;20012;-67
2022/07/29 04:57:16;;;;;;;;;;;20.00;64.10;;;;;;1997614;28;19906;-67
2022/07/29 04:58:15;;;;;;;;;;;19.90;63.90;;;;;;1997580;28;20340;-67
2022/07/29 04:59:13;;;;;;;;;;;20.00;64.00;;;;;;1997581;28;19921;-67
2022/07/29 05:00:12;;;;;;;;;;;19.90;64.00;;;;;;1997459;28;20349;-67
2022/07/29 05:01:10;;;;;;;;;;;19.90;64.00;;;;;;1997585;28;19913;-68
2022/07/29 05:02:09;;;;;;;;;;;19.90;63.90;;;;;;1997618;28;19905;-67
2022/07/29 05:03:07;;;;;;;;;;;19.90;63.90;;;;;;1997488;28;20297;-67
2022/07/29 05:04:06;;;;;;;;;;;19.90;63.90;;;;;;1997376;28;19910;-67
2022/07/29 05:05:05;;;;;;;;;;;19.90;64.30;;;;;;1997509;28;19916;-67
2022/07/29 05:06:03;;;;;;;;;;;19.90;63.90;;;;;;1996570;28;19905;-68
2022/07/29 05:07:01;;;;;;;;;;;19.90;63.90;;;;;;1997276;28;19913;-67
2022/07/29 05:08:01;;;;;;;;;;;19.90;63.90;;;;;;1997476;28;20001;-68
2022/07/29 05:08:59;;;;;;;;;;;19.90;64.00;;;;;;1997463;28;20407;-67
2022/07/29 05:09:58;;;;;;;;;;;19.90;63.90;;;;;;1997458;28;19909;-68
2022/07/29 05:10:57;;;;;;;;;;;20.00;64.00;;;;;;1997382;28;19913;-67
2022/07/29 05:11:55;;;;;;;;;;;19.90;63.90;;;;;;1997466;28;20349;-68
2022/07/29 05:12:53;;;;;;;;;;;20.00;64.00;;;;;;1997430;28;20332;-69
2022/07/29 05:13:52;;;;;;;;;;;19.90;63.90;;;;;;1997294;28;20000;-67
2022/07/29 05:14:51;;;;;;;;;;;20.00;64.00;;;;;;1997419;28;20277;-68
2022/07/29 05:15:49;;;;;;;;;;;20.00;64.00;;;;;;1997221;28;19909;-68
2022/07/29 05:16:50;;;;;;;;;;;20.00;64.10;;;;;;1997365;28;20368;-68
2022/07/29 05:17:49;;;;;;;;;;;20.00;64.00;;;;;;1997442;28;19992;-68
2022/07/29 05:18:47;;;;;;;;;;;20.00;64.00;;;;;;1997363;28;20316;-68
2022/07/29 05:19:46;;;;;;;;;;;19.90;63.90;;;;;;1997375;28;20017;-68
2022/07/29 05:20:44;;;;;;;;;;;20.00;64.00;;;;;;1997343;28;19909;-68
2022/07/29 05:21:44;;;;;;;;;;;20.00;64.00;;;;;;1997486;28;19906;-68
2022/07/29 05:22:42;;;;;;;;;;;20.00;64.00;;;;;;1997392;28;19905;-68
2022/07/29 05:23:41;;;;;;;;;;;20.00;64.00;;;;;;1997451;28;20317;-69
2022/07/29 05:24:40;;;;;;;;;;;20.00;64.00;;;;;;1997342;28;19988;-68
2022/07/29 05:25:39;;;;;;;;;;;20.00;64.70;;;;;;1997328;28;19912;-68
2022/07/29 05:26:37;;;;;;;;;;;20.00;64.00;;;;;;1997406;28;19933;-67
2022/07/29 05:27:36;;;;;;;;;;;20.00;64.00;;;;;;1997265;28;20323;-68
2022/07/29 05:28:35;;;;;;;;;;;20.00;64.00;;;;;;1997216;28;19914;-68
2022/07/29 05:29:33;;;;;;;;;;;20.00;64.00;;;;;;1997310;28;19906;-68
2022/07/29 05:30:32;;;;;;;;;;;20.00;64.00;;;;;;1997261;28;19917;-67
2022/07/29 05:31:30;;;;;;;;;;;20.00;64.00;;;;;;1997402;28;20369;-68
2022/07/29 05:32:29;;;;;;;;;;;20.00;64.00;;;;;;1997477;28;19906;-67
2022/07/29 05:33:27;;;;;;;;;;;20.00;64.10;;;;;;1997243;28;19906;-67
2022/07/29 05:34:26;;;;;;;;;;;20.00;64.00;;;;;;1997355;28;19982;-67
2022/07/29 05:35:24;;;;;;;;;;;20.00;64.00;;;;;;1997321;28;19932;-68
2022/07/29 05:36:23;;;;;;;;;;;20.00;64.00;;;;;;1997315;28;20281;-67
2022/07/29 05:37:21;;;;;;;;;;;20.00;64.00;;;;;;1997279;28;19996;-67
2022/07/29 05:38:20;;;;;;;;;;;20.00;64.10;;;;;;1997158;28;19940;-67
2022/07/29 05:39:19;;;;;;;;;;;20.00;64.10;;;;;;1997092;28;19949;-67
2022/07/29 05:40:17;;;;;;;;;;;20.00;64.00;;;;;;1997161;28;19906;-67
2022/07/29 05:41:16;;;;;;;;;;;20.00;64.00;;;;;;1997208;28;19905;-67
2022/07/29 05:42:14;;;;;;;;;;;20.00;64.10;;;;;;1997192;28;19953;-67
2022/07/29 05:43:13;;;;;;;;;;;20.00;64.10;;;;;;1997240;28;20322;-67
2022/07/29 05:44:13;;;;;;;;;;;20.00;64.20;;;;;;1997139;28;19933;-67
2022/07/29 05:45:11;;;;;;;;;;;20.00;64.30;;;;;;1997206;28;20012;-67
2022/07/29 05:46:10;;;;;;;;;;;20.00;64.30;;;;;;1988992;28;19906;-67
2022/07/29 05:47:08;;;;;;;;;;;20.00;64.30;;;;;;1988966;28;19988;-67
2022/07/29 05:48:07;;;;;;;;;;;20.00;64.40;;;;;;1996620;28;19906;-67
2022/07/29 05:49:06;;;;;;;;;;;20.00;64.40;;;;;;1997247;28;19913;-67
2022/07/29 05:50:05;;;;;;;;;;;20.00;64.40;;;;;;1997157;28;19991;-67